Time;durP1;ratioP1;P1;durP2;ratioP2;P2;SDS_P1;SDS_P2;PMS_P1;PMS_P2;Temp;Humidity;BMP_temperature;BMP_pressure;BME280_temperature;BME280_humidity;BME280_pressure;Samples;Min_cycle;Max_cycle;Signal;HPM_P1;HPM_P2
2021/04/15 00:02:13;;;;;;;4.10;3.80;;;5.00;99.90;;;;;;5047683;28;20186;-66
2021/04/15 00:04:39;;;;;;;5.90;4.37;;;5.00;99.90;;;;;;5046074;28;20194;-66
2021/04/15 00:07:04;;;;;;;4.80;4.30;;;5.00;99.90;;;;;;5048757;28;20205;-66
2021/04/15 00:09:30;;;;;;;5.03;4.50;;;4.90;99.90;;;;;;5048170;28;20181;-66
2021/04/15 00:11:56;;;;;;;7.37;4.97;;;4.80;1.00;;;;;;5048617;28;20236;-66
2021/04/15 00:14:23;;;;;;;6.70;4.60;;;4.70;1.00;;;;;;5048036;28;20190;-65
2021/04/15 00:16:49;;;;;;;7.38;5.00;;;4.70;1.00;;;;;;5047290;28;20441;-66
2021/04/15 00:19:18;;;;;;;6.93;4.70;;;4.70;57.00;;;;;;5047720;28;20714;-66
2021/04/15 00:21:44;;;;;;;4.97;4.47;;;4.70;1.00;;;;;;5047745;28;20177;-66
2021/04/15 00:24:09;;;;;;;5.57;5.03;;;4.70;47.20;;;;;;5047363;28;20196;-66
2021/04/15 00:26:36;;;;;;;5.53;5.00;;;4.70;1.00;;;;;;5045537;28;20433;-66
2021/04/15 00:29:01;;;;;;;5.25;4.75;;;4.70;99.90;;;;;;5045811;28;20802;-67
2021/04/15 00:31:29;;;;;;;4.30;4.00;;;4.70;1.00;;;;;;5048450;28;20261;-66
2021/04/15 00:33:55;;;;;;;5.55;4.32;;;4.70;99.90;;;;;;5046961;28;20681;-66
2021/04/15 00:36:21;;;;;;;5.07;4.28;;;4.70;1.00;;;;;;5047853;28;20286;-65
2021/04/15 00:38:48;;;;;;;4.60;4.20;;;4.70;99.90;;;;;;5046061;28;20620;-66
2021/04/15 00:41:14;;;;;;;7.18;4.60;;;4.60;1.00;;;;;;5049586;28;20462;-66
2021/04/15 00:43:45;;;;;;;4.90;4.40;;;4.50;29.00;;;;;;5048175;28;20186;-67
2021/04/15 00:46:23;;;;;;;5.40;4.43;;;4.50;99.90;;;;;;5046608;28;20182;-66
2021/04/15 00:48:48;;;;;;;5.60;4.70;;;4.60;1.00;;;;;;5048510;28;20292;-67
2021/04/15 00:51:32;;;;;;;5.63;4.63;;;4.60;1.00;;;;;;5046205;28;20201;-66
2021/04/15 00:54:04;;;;;;;5.47;4.25;;;4.60;13.00;;;;;;5048046;28;20251;-66
2021/04/15 00:56:30;;;;;;;5.78;4.88;;;4.50;99.90;;;;;;5045612;28;20189;-66
2021/04/15 00:58:56;;;;;;;5.80;4.88;;;4.50;99.90;;;;;;5043725;28;20185;-66
2021/04/15 01:01:22;;;;;;;7.70;4.77;;;4.50;1.00;;;;;;5043879;28;20200;-67
2021/04/15 01:03:47;;;;;;;5.13;4.63;;;4.50;1.00;;;;;;5042262;28;20466;-66
2021/04/15 01:06:14;;;;;;;4.20;3.90;;;4.50;1.00;;;;;;5047537;28;20284;-67
2021/04/15 01:08:41;;;;;;;6.38;4.53;;;4.50;99.90;;;;;;5046446;28;20394;-66
2021/04/15 01:11:28;;;;;;;5.53;4.20;;;4.40;99.90;;;;;;5049040;28;20182;-65
2021/04/15 01:14:27;;;;;;;5.25;4.75;;;4.40;1.00;;;;;;5047522;28;20705;-66
2021/04/15 01:17:28;;;;;;;4.95;4.25;;;4.30;1.00;;;;;;5040358;28;20535;-66
2021/04/15 01:20:14;;;;;;;5.40;4.65;;;4.20;53.90;;;;;;5041295;28;20776;-66
2021/04/15 01:23:07;;;;;;;4.40;3.88;;;4.20;99.90;;;;;;5048176;28;20271;-66
2021/04/15 01:25:58;;;;;;;7.70;4.30;;;4.10;99.90;;;;;;5043617;28;20186;-66
2021/04/15 01:28:47;;;;;;;4.40;4.00;;;4.10;99.90;;;;;;5032415;28;20613;-66
2021/04/15 01:31:29;;;;;;;5.40;4.47;;;4.00;99.90;;;;;;5006834;28;20206;-66
2021/04/15 01:34:04;;;;;;;5.05;4.60;;;3.90;99.90;;;;;;5047458;28;20205;-67
2021/04/15 01:36:45;;;;;;;6.28;4.40;;;3.90;99.90;;;;;;5048518;28;20181;-66
2021/04/15 01:39:16;;;;;;;5.60;4.72;;;3.80;99.90;;;;;;5046463;28;20259;-66
2021/04/15 01:41:59;;;;;;;4.28;3.70;;;3.80;1.00;;;;;;5046085;28;20185;-65
2021/04/15 01:45:02;;;;;;;4.72;4.32;;;3.70;1.00;;;;;;5047344;28;20229;-66
2021/04/15 01:47:34;;;;;;;6.60;4.93;;;3.70;1.00;;;;;;5047060;28;20213;-68
2021/04/15 01:50:09;;;;;;;4.95;4.25;;;3.60;1.00;;;;;;5046376;28;20533;-66
2021/04/15 01:52:37;;;;;;;5.00;4.20;;;3.60;1.00;;;;;;5050136;28;20215;-67
2021/04/15 01:55:12;;;;;;;5.80;4.30;;;3.60;1.00;;;;;;5049288;28;21494;-67
2021/04/15 01:58:06;;;;;;;5.72;4.75;;;3.50;1.00;;;;;;5051149;28;20189;-67
2021/04/15 02:00:35;;;;;;;5.32;4.32;;;3.50;1.00;;;;;;5049348;28;20189;-66
2021/04/15 02:03:10;;;;;;;7.13;4.35;;;3.50;1.00;;;;;;5050421;28;20185;-66
2021/04/15 02:05:39;;;;;;;5.53;4.50;;;3.50;1.00;;;;;;5049624;28;20268;-66
2021/04/15 02:08:18;;;;;;;4.72;4.20;;;3.40;1.00;;;;;;5050928;28;20217;-66
2021/04/15 02:10:47;;;;;;;6.32;4.35;;;3.30;1.00;;;;;;5052695;28;20181;-66
2021/04/15 02:13:16;;;;;;;4.78;4.15;;;3.40;1.00;;;;;;5046625;28;20178;-66
2021/04/15 02:15:46;;;;;;;5.22;4.38;;;3.30;1.00;;;;;;5050925;28;20186;-66
2021/04/15 02:18:25;;;;;;;5.95;4.13;;;3.30;1.00;;;;;;5050508;28;20189;-66
2021/04/15 02:20:57;;;;;;;4.32;3.75;;;3.30;1.00;;;;;;5050924;28;20196;-66
2021/04/15 02:23:31;;;;;;;5.20;4.60;;;3.40;1.00;;;;;;5047112;28;20186;-67
2021/04/15 02:26:04;;;;;;;6.28;4.10;;;3.40;1.00;;;;;;5049857;28;20624;-66
2021/04/15 02:28:54;;;;;;;6.80;4.45;;;3.40;1.00;;;;;;5052261;28;20198;-66
2021/04/15 02:31:25;;;;;;;5.90;4.13;;;3.40;1.00;;;;;;5043923;28;20217;-65
2021/04/15 02:34:15;;;;;;;5.43;4.20;;;3.40;1.00;;;;;;5051303;28;20188;-67
2021/04/15 02:36:44;;;;;;;6.60;4.38;;;3.50;1.00;;;;;;5050491;28;20182;-67
2021/04/15 02:39:26;;;;;;;6.25;4.95;;;3.40;1.00;;;;;;5050679;28;20320;-66
2021/04/15 02:41:53;;;;;;;4.45;3.88;;;3.40;1.00;;;;;;5045563;28;20213;-66
2021/04/15 02:44:26;;;;;;;4.43;4.03;;;3.40;1.00;;;;;;5046852;28;20401;-66
2021/04/15 02:47:01;;;;;;;8.38;4.20;;;3.40;1.00;;;;;;5042935;28;20194;-66
2021/04/15 02:49:30;;;;;;;5.93;4.60;;;3.50;1.00;;;;;;5050903;28;20189;-67
2021/04/15 02:52:05;;;;;;;4.60;4.20;;;3.40;1.00;;;;;;5049156;28;20595;-67
2021/04/15 02:54:31;;;;;;;6.00;4.30;;;3.40;1.00;;;;;;5046458;28;20271;-67
2021/04/15 02:57:09;;;;;;;5.43;4.90;;;3.30;1.00;;;;;;5051461;28;20236;-65
2021/04/15 02:59:58;;;;;;;5.40;4.30;;;3.30;1.00;;;;;;5051550;28;20966;-65
2021/04/15 03:02:31;;;;;;;5.30;4.30;;;3.20;1.00;;;;;;5045357;28;20670;-65
2021/04/15 03:05:19;;;;;;;5.25;4.65;;;3.20;1.00;;;;;;5052050;28;20220;-67
2021/04/15 03:07:45;;;;;;;4.32;3.90;;;3.20;1.00;;;;;;5051260;28;20211;-66
2021/04/15 03:10:15;;;;;;;5.45;4.20;;;3.30;1.00;;;;;;5050936;28;20193;-66
2021/04/15 03:12:46;;;;;;;4.28;3.85;;;3.20;1.00;;;;;;5045888;28;20559;-67
2021/04/15 03:15:19;;;;;;;6.57;4.63;;;3.30;1.00;;;;;;5031380;28;20197;-66
2021/04/15 03:17:50;;;;;;;5.35;4.60;;;3.20;1.00;;;;;;5048068;28;20578;-66
2021/04/15 03:20:21;;;;;;;5.10;4.60;;;3.20;1.00;;;;;;5050002;28;20197;-66
2021/04/15 03:22:52;;;;;;;4.90;4.03;;;3.20;1.00;;;;;;5043585;28;20223;-67
2021/04/15 03:25:19;;;;;;;4.63;3.70;;;3.20;1.00;;;;;;5016625;28;20224;-67
2021/04/15 03:28:02;;;;;;;4.88;4.38;;;3.20;1.00;;;;;;5050043;28;20213;-67
2021/04/15 03:30:47;;;;;;;5.10;4.57;;;3.20;1.00;;;;;;5051221;28;20583;-66
2021/04/15 03:33:21;;;;;;;6.57;4.60;;;3.10;1.00;;;;;;5050777;28;20235;-66
2021/04/15 03:36:03;;;;;;;5.03;4.50;;;3.10;1.00;;;;;;5047254;28;20197;-66
2021/04/15 03:38:33;;;;;;;6.57;4.20;;;3.10;1.00;;;;;;5049252;28;20751;-66
2021/04/15 03:41:08;;;;;;;6.93;4.88;;;3.00;1.00;;;;;;5051997;28;20662;-66
2021/04/15 03:43:40;;;;;;;8.77;5.15;;;3.00;1.00;;;;;;5040756;28;20674;-67
2021/04/15 03:46:36;;;;;;;6.90;5.53;;;3.00;1.00;;;;;;5048391;28;20200;-67
2021/04/15 03:49:24;;;;;;;4.93;4.43;;;2.90;1.00;;;;;;5041274;28;20291;-67
2021/04/15 03:51:58;;;;;;;5.75;4.78;;;2.90;1.00;;;;;;5045601;28;20243;-68
2021/04/15 03:54:38;;;;;;;26.40;22.65;;;2.80;1.00;;;;;;5048251;28;20535;-66
2021/04/15 03:57:07;;;;;;;27.65;24.85;;;2.80;1.00;;;;;;5044248;28;20648;-66
2021/04/15 03:59:48;;;;;;;16.25;14.70;;;2.80;1.00;;;;;;5061730;28;20190;-67
2021/04/15 04:02:30;;;;;;;7.35;6.63;;;2.80;1.00;;;;;;5036174;28;20196;-67
2021/04/15 04:05:22;;;;;;;10.63;9.40;;;2.70;1.00;;;;;;5044689;28;20189;-67
2021/04/15 04:07:55;;;;;;;6.57;5.15;;;2.70;1.00;;;;;;5045771;28;20572;-66
2021/04/15 04:10:29;;;;;;;5.93;5.32;;;2.60;1.00;;;;;;5047765;28;20201;-65
2021/04/15 04:13:15;;;;;;;7.28;5.30;;;2.70;1.00;;;;;;5048347;28;20510;-65
2021/04/15 04:15:46;;;;;;;24.98;19.08;;;2.60;1.00;;;;;;5045588;28;20180;-66
2021/04/15 04:18:29;;;;;;;7.07;5.50;;;2.60;1.00;;;;;;5047190;28;20192;-66
2021/04/15 04:21:07;;;;;;;10.15;8.90;;;2.60;1.00;;;;;;5029435;28;20675;-65
2021/04/15 04:24:00;;;;;;;8.70;6.95;;;2.50;1.00;;;;;;5024530;28;20188;-64
2021/04/15 04:26:30;;;;;;;20.58;16.45;;;2.50;1.00;;;;;;5035692;28;20262;-64
2021/04/15 04:29:01;;;;;;;16.63;11.20;;;2.40;1.00;;;;;;5191547;22;22278;-74
2021/04/15 04:31:32;;;;;;;11.70;9.52;;;2.40;1.00;;;;;;5011670;28;20577;-74
2021/04/15 04:33:58;;;;;;;23.35;18.73;;;2.40;1.00;;;;;;5010497;28;20182;-74
2021/04/15 04:36:26;;;;;;;12.37;8.57;;;2.40;1.00;;;;;;5007750;28;20208;-74
2021/04/15 04:38:53;;;;;;;11.52;8.15;;;2.40;1.00;;;;;;5005227;28;20472;-71
2021/04/15 04:41:53;;;;;;;11.02;8.30;;;2.40;1.00;;;;;;5009667;28;20202;-73
2021/04/15 04:44:32;;;;;;;9.40;7.65;;;2.40;1.00;;;;;;5017765;28;20228;-72
2021/04/15 04:47:09;;;;;;;11.15;7.93;;;2.30;1.00;;;;;;5031583;28;20220;-73
2021/04/15 04:49:39;;;;;;;12.95;9.88;;;2.30;1.00;;;;;;5027670;28;20182;-72
2021/04/15 04:52:17;;;;;;;10.80;6.60;;;2.30;1.00;;;;;;5023367;28;20221;-71
2021/04/15 04:54:44;;;;;;;10.52;7.35;;;2.30;1.00;;;;;;5044694;28;20193;-73
2021/04/15 04:57:13;;;;;;;11.32;8.77;;;2.30;1.00;;;;;;5028499;28;20194;-73
2021/04/15 04:59:46;;;;;;;7.47;5.93;;;2.40;1.00;;;;;;5028974;28;20183;-73
2021/04/15 05:02:15;;;;;;;8.45;5.85;;;2.40;1.00;;;;;;5017986;28;20201;-73
2021/04/15 05:04:42;;;;;;;6.03;4.40;;;2.40;1.00;;;;;;5025799;28;20519;-73
2021/04/15 05:07:21;;;;;;;6.75;4.75;;;2.40;1.00;;;;;;5027847;28;20181;-73
2021/04/15 05:09:47;;;;;;;5.20;4.70;;;2.50;1.00;;;;;;5029699;28;20229;-73
2021/04/15 05:12:18;;;;;;;8.23;4.75;;;2.50;1.00;;;;;;5029094;28;20191;-73
2021/04/15 05:14:45;;;;;;;5.63;4.75;;;2.50;1.00;;;;;;5037677;28;20183;-73
2021/04/15 05:17:25;;;;;;;5.47;4.53;;;2.60;1.00;;;;;;5029166;28;20188;-73
2021/04/15 05:19:52;;;;;;;6.35;5.07;;;2.60;1.00;;;;;;5028830;28;20666;-74
2021/04/15 05:22:32;;;;;;;7.45;5.50;;;2.60;99.90;;;;;;5012291;28;20645;-74
2021/04/15 05:25:06;;;;;;;6.65;4.93;;;2.60;99.90;;;;;;5023107;28;20655;-71
2021/04/15 05:27:35;;;;;;;8.13;5.43;;;2.70;99.90;;;;;;5025270;28;20562;-74
2021/04/15 05:30:29;;;;;;;8.27;4.70;;;2.70;99.90;;;;;;5031258;28;20314;-73
2021/04/15 05:32:59;;;;;;;7.10;4.68;;;2.70;99.90;;;;;;5031121;28;20177;-72
2021/04/15 05:35:33;;;;;;;6.18;5.53;;;2.70;99.20;;;;;;5032643;28;20818;-72
2021/04/15 05:37:59;;;;;;;6.40;4.53;;;2.70;68.20;;;;;;5031368;28;20185;-73
2021/04/15 05:40:25;;;;;;;5.33;4.80;;;2.70;8.30;;;;;;5032728;28;20192;-73
2021/04/15 05:43:03;;;;;;;6.07;5.47;;;2.70;45.70;;;;;;5032241;28;20466;-73
2021/04/15 05:45:30;;;;;;;5.10;4.25;;;2.80;1.00;;;;;;5032897;28;20548;-73
2021/04/15 05:48:06;;;;;;;6.20;4.70;;;2.80;1.00;;;;;;5044975;28;20757;-71
2021/04/15 05:50:46;;;;;;;5.35;4.85;;;2.90;99.90;;;;;;5016635;28;20217;-72
2021/04/15 05:53:35;;;;;;;5.95;4.65;;;2.80;99.90;;;;;;5013109;28;20162;-72
2021/04/15 05:56:07;;;;;;;5.68;5.10;;;2.90;1.00;;;;;;5018102;28;20213;-73
2021/04/15 05:58:58;;;;;;;6.68;4.85;;;2.90;1.00;;;;;;5013142;28;20255;-73
2021/04/15 06:01:36;;;;;;;7.22;5.85;;;3.10;1.00;;;;;;4974569;28;20184;-70
2021/04/15 06:04:36;;;;;;;6.30;5.22;;;3.10;99.90;;;;;;5014683;28;20259;-73
2021/04/15 06:07:05;;;;;;;8.45;5.30;;;3.20;1.00;;;;;;5032712;28;20178;-72
2021/04/15 06:09:30;;;;;;;6.68;5.90;;;3.30;1.00;;;;;;5029181;28;20261;-79
2021/04/15 06:12:05;;;;;;;6.80;6.10;;;3.30;90.70;;;;;;5031115;28;20258;-79
2021/04/15 06:14:49;;;;;;;8.20;5.45;;;3.50;1.00;;;;;;5034072;28;20723;-79
2021/04/15 06:17:33;;;;;;;9.27;6.07;;;3.50;1.00;;;;;;5031913;28;20656;-78
2021/04/15 06:20:03;;;;;;;7.72;6.22;;;3.70;99.90;;;;;;5032532;28;20240;-79
2021/04/15 06:22:31;;;;;;;11.60;6.60;;;3.80;1.00;;;;;;5032114;28;20197;-79
2021/04/15 06:25:13;;;;;;;8.15;6.32;;;3.90;1.00;;;;;;5033978;28;20195;-79
2021/04/15 06:27:39;;;;;;;7.57;6.63;;;3.80;99.90;;;;;;5042268;28;20551;-78
2021/04/15 06:30:18;;;;;;;6.93;5.97;;;3.90;99.90;;;;;;5025686;28;20245;-79
2021/04/15 06:32:54;;;;;;;9.00;6.40;;;4.00;1.00;;;;;;5031704;28;20174;-76
2021/04/15 06:35:29;;;;;;;9.68;6.97;;;4.10;1.00;;;;;;5031814;28;20178;-78
2021/04/15 06:38:13;;;;;;;9.10;6.93;;;4.20;1.00;;;;;;5030907;28;20189;-78
2021/04/15 06:40:53;;;;;;;7.05;6.32;;;4.20;1.00;;;;;;5031375;28;20562;-78
2021/04/15 06:43:28;;;;;;;10.15;7.07;;;4.30;1.00;;;;;;5031887;28;20190;-78
2021/04/15 06:46:15;;;;;;;7.60;6.75;;;4.30;1.00;;;;;;5032628;28;20186;-78
2021/04/15 06:48:48;;;;;;;11.48;7.45;;;4.40;99.90;;;;;;5031141;28;20386;-78
2021/04/15 06:51:32;;;;;;;10.02;7.20;;;4.60;1.00;;;;;;5031607;28;20182;-77
2021/04/15 06:54:20;;;;;;;7.95;6.20;;;4.70;1.00;;;;;;5030868;28;20206;-74
2021/04/15 06:57:16;;;;;;;8.57;6.80;;;4.70;1.00;;;;;;5030943;28;20530;-74
2021/04/15 07:00:16;;;;;;;8.43;6.55;;;4.80;99.90;;;;;;5027631;28;20249;-74
2021/04/15 07:03:02;;;;;;;7.43;6.05;;;4.80;99.90;;;;;;5029491;28;20183;-77
2021/04/15 07:05:32;;;;;;;6.57;5.90;;;4.90;99.90;;;;;;5025763;28;20190;-77
2021/04/15 07:08:10;;;;;;;10.50;6.60;;;5.00;99.90;;;;;;5025905;28;20210;-72
2021/04/15 07:10:54;;;;;;;8.77;6.28;;;5.10;99.90;;;;;;5030049;28;20261;-72
2021/04/15 07:14:18;;;;;;;8.10;6.15;;;5.30;99.90;;;;;;5030932;28;20178;-73
2021/04/15 07:16:55;;;;;;;5.80;5.30;;;5.50;1.00;;;;;;5011314;28;20197;-79
2021/04/15 07:19:39;;;;;;;5.82;4.97;;;5.50;1.00;;;;;;5030964;28;20244;-79
2021/04/15 07:22:32;;;;;;;8.95;5.43;;;5.50;1.00;;;;;;5030182;28;20185;-79
2021/04/15 07:25:01;;;;;;;6.90;5.60;;;5.60;1.00;;;;;;5030412;28;20171;-80
2021/04/15 07:27:48;;;;;;;7.55;5.97;;;5.80;99.90;;;;;;5030705;28;20198;-73
2021/04/15 07:30:40;;;;;;;6.35;5.75;;;5.70;99.90;;;;;;5024398;28;20218;-74
2021/04/15 07:33:27;;;;;;;8.25;5.53;;;5.70;99.90;;;;;;4990327;28;20291;-73
2021/04/15 07:36:37;;;;;;;7.38;5.78;;;6.00;99.90;;;;;;5020984;28;20178;-64
2021/04/15 07:39:20;;;;;;;5.95;5.35;;;6.30;99.90;;;;;;5005012;28;20183;-63
2021/04/15 07:42:05;;;;;;;6.10;5.50;;;6.40;99.90;;;;;;5029109;28;20373;-63
2021/04/15 07:44:53;;;;;;;8.65;6.13;;;6.50;99.90;;;;;;5029274;28;20187;-63
2021/04/15 07:48:09;;;;;;;6.50;5.90;;;6.60;99.90;;;;;;5025048;28;20554;-77
2021/04/15 07:51:13;;;;;;;7.90;5.45;;;6.50;99.90;;;;;;4996828;28;20587;-77
2021/04/15 07:53:54;;;;;;;7.25;5.88;;;6.60;99.90;;;;;;4981562;28;20209;-63
2021/04/15 07:56:52;;;;;;;5.72;4.97;;;6.60;65.10;;;;;;4978238;28;20205;-64
2021/04/15 07:59:39;;;;;;;8.13;5.68;;;6.80;74.40;;;;;;4974994;28;20415;-72
2021/04/15 08:02:33;;;;;;;6.30;5.70;;;6.80;17.70;;;;;;4979724;28;20282;-76
2021/04/15 08:05:36;;;;;;;6.55;5.90;;;6.90;1.00;;;;;;4976137;28;20283;-77
2021/04/15 08:08:13;;;;;;;6.43;5.70;;;6.90;1.00;;;;;;4974867;28;20553;-72
2021/04/15 08:11:17;;;;;;;5.40;5.00;;;6.80;1.00;;;;;;4977824;28;20281;-76
2021/04/15 08:13:52;;;;;;;5.75;5.20;;;6.90;1.00;;;;;;4920500;29;20986;-77
2021/04/15 08:16:39;;;;;;;6.22;5.50;;;7.00;1.00;;;;;;4916692;29;20198;-77
2021/04/15 08:19:23;;;;;;;5.93;5.43;;;7.00;1.00;;;;;;4922116;29;20238;-77
2021/04/15 08:22:00;;;;;;;8.63;5.35;;;7.00;7.00;;;;;;4925910;29;20200;-72
2021/04/15 08:24:37;;;;;;;5.18;4.78;;;7.00;1.80;;;;;;4910163;29;20208;-76
2021/04/15 08:27:21;;;;;;;5.90;5.30;;;7.10;1.00;;;;;;4920935;29;20191;-73
2021/04/15 08:29:57;;;;;;;6.30;5.80;;;7.20;1.00;;;;;;4943448;28;20476;-73
2021/04/15 08:32:41;;;;;;;6.37;5.30;;;7.30;1.00;;;;;;4988409;28;20761;-71
2021/04/15 08:35:34;;;;;;;6.32;5.80;;;7.50;1.00;;;;;;4988835;28;20472;-72
2021/04/15 08:38:38;;;;;;;6.07;5.57;;;7.60;1.00;;;;;;4985922;28;20217;-72
2021/04/15 08:41:37;;;;;;;7.30;5.77;;;7.90;1.00;;;;;;4988388;28;20472;-63
2021/04/15 08:44:20;;;;;;;6.77;6.03;;;7.80;1.00;;;;;;4985758;28;20975;-63
2021/04/15 08:47:24;;;;;;;6.07;5.53;;;7.60;1.00;;;;;;4988291;28;20429;-63
2021/04/15 08:50:17;;;;;;;6.45;5.57;;;7.50;1.00;;;;;;4900549;28;20454;-63
2021/04/15 08:53:23;;;;;;;6.30;5.70;;;7.60;1.00;;;;;;5029611;28;20201;-63
2021/04/15 08:56:26;;;;;;;6.03;5.50;;;7.70;1.00;;;;;;5000076;28;20201;-64
2021/04/15 08:59:15;;;;;;;5.57;5.03;;;7.70;1.00;;;;;;4968515;28;20445;-64
2021/04/15 09:01:43;;;;;;;5.20;4.80;;;7.90;1.00;;;;;;5017860;28;20436;-63
2021/04/15 09:04:32;;;;;;;5.43;4.93;;;8.10;1.00;;;;;;5030192;28;20420;-64
2021/04/15 09:07:06;;;;;;;5.20;4.77;;;8.00;1.00;;;;;;5030025;28;20428;-64
2021/04/15 09:10:07;;;;;;;5.37;4.97;;;8.00;1.00;;;;;;5027178;28;20443;-64
2021/04/15 09:12:52;;;;;;;5.80;5.30;;;8.10;1.00;;;;;;5009743;28;20459;-64
2021/04/15 09:15:28;;;;;;;5.20;4.60;;;8.20;1.00;;;;;;5043879;28;20425;-63
2021/04/15 09:18:33;;;;;;;5.20;4.70;;;8.20;1.00;;;;;;5029231;28;20428;-63
2021/04/15 09:21:33;;;;;;;5.30;4.80;;;8.40;1.00;;;;;;5028603;28;20425;-63
2021/04/15 09:24:25;;;;;;;7.37;5.33;;;8.50;1.00;;;;;;5028757;28;20424;-63
2021/04/15 09:27:21;;;;;;;6.63;5.27;;;8.50;1.00;;;;;;5029001;28;20409;-63
2021/04/15 09:29:53;;;;;;;4.23;3.93;;;8.70;1.00;;;;;;5028569;28;20473;-63
2021/04/15 09:32:26;;;;;;;4.60;4.30;;;8.80;1.00;;;;;;5026602;28;20780;-63
2021/04/15 09:35:13;;;;;;;5.53;5.03;;;8.90;1.00;;;;;;5028300;28;20416;-64
2021/04/15 09:38:14;;;;;;;5.23;4.73;;;8.90;99.90;;;;;;5027153;28;20479;-64
2021/04/15 09:41:14;;;;;;;4.90;4.40;;;9.10;99.90;;;;;;4997705;28;20471;-62
2021/04/15 09:43:42;;;;;;;4.60;4.23;;;9.40;99.90;;;;;;5020245;28;20466;-62
2021/04/15 09:46:29;;;;;;;4.60;4.30;;;9.40;99.90;;;;;;5027918;28;20428;-62
2021/04/15 09:49:24;;;;;;;5.03;4.53;;;9.50;99.90;;;;;;5027458;28;20460;-62
2021/04/15 09:52:07;;;;;;;4.73;4.33;;;9.40;99.90;;;;;;5026935;28;20429;-63
2021/04/15 09:55:05;;;;;;;4.30;4.00;;;9.40;99.90;;;;;;5028169;28;20483;-63
2021/04/15 09:57:51;;;;;;;5.40;4.43;;;9.40;99.90;;;;;;5027006;28;20892;-64
2021/04/15 10:00:25;;;;;;;5.03;4.03;;;9.50;99.90;;;;;;5027194;28;20413;-63
2021/04/15 10:03:12;;;;;;;4.17;3.87;;;9.80;99.90;;;;;;5017488;28;20437;-64
2021/04/15 10:06:11;;;;;;;4.33;4.03;;;9.60;99.90;;;;;;5024017;28;20440;-63
2021/04/15 10:09:03;;;;;;;5.70;5.20;;;9.40;99.90;;;;;;5042346;28;20472;-64
2021/04/15 10:12:03;;;;;;;6.13;5.17;;;9.40;99.90;;;;;;5027955;28;20810;-63
2021/04/15 10:14:43;;;;;;;5.80;5.30;;;9.30;99.90;;;;;;5030993;28;20930;-63
2021/04/15 10:17:27;;;;;;;6.10;5.60;;;9.20;99.90;;;;;;5031426;28;20516;-63
2021/04/15 10:20:14;;;;;;;7.00;6.40;;;9.00;99.90;;;;;;5030411;28;20514;-64
2021/04/15 10:23:04;;;;;;;6.60;6.07;;;8.90;99.90;;;;;;5033536;28;20563;-63
2021/04/15 10:25:55;;;;;;;6.60;6.00;;;8.80;99.90;;;;;;5030338;28;21114;-64
2021/04/15 10:28:29;;;;;;;5.67;5.27;;;8.70;99.90;;;;;;5045557;28;20516;-64
2021/04/15 10:31:29;;;;;;;4.83;4.43;;;9.00;99.90;;;;;;5030930;28;20420;-63
2021/04/15 10:34:08;;;;;;;3.80;3.50;;;9.10;99.90;;;;;;5024246;28;20513;-63
2021/04/15 10:37:04;;;;;;;4.00;3.67;;;8.90;99.90;;;;;;5030715;28;20563;-64
2021/04/15 10:40:06;;;;;;;3.77;3.47;;;8.90;99.90;;;;;;5030199;28;20761;-63
2021/04/15 10:42:53;;;;;;;3.37;3.07;;;8.60;99.90;;;;;;5021600;28;20423;-64
2021/04/15 10:45:30;;;;;;;3.80;3.40;;;8.50;99.90;;;;;;5026728;28;21004;-64
2021/04/15 10:48:08;;;;;;;3.93;2.80;;;8.70;99.90;;;;;;5022442;28;20494;-63
2021/04/15 10:50:55;;;;;;;2.97;2.77;;;8.90;99.90;;;;;;5030176;28;20452;-63
2021/04/15 10:54:06;;;;;;;3.30;3.10;;;9.10;99.90;;;;;;5029881;28;20894;-63
2021/04/15 10:56:44;;;;;;;2.90;2.80;;;8.90;99.90;;;;;;5027111;28;20440;-64
2021/04/15 10:59:17;;;;;;;3.43;3.23;;;8.90;99.90;;;;;;5018048;28;20495;-63
2021/04/15 11:01:46;;;;;;;3.20;3.00;;;8.60;99.90;;;;;;5026140;28;20412;-63
2021/04/15 11:04:12;;;;;;;3.50;3.20;;;8.30;99.90;;;;;;5029261;28;20436;-63
2021/04/15 11:06:48;;;;;;;3.83;3.53;;;8.40;99.90;;;;;;5029962;28;20416;-63
2021/04/15 11:09:27;;;;;;;4.20;3.90;;;8.30;99.90;;;;;;5029355;28;20212;-62
2021/04/15 11:12:11;;;;;;;4.30;4.00;;;8.00;99.90;;;;;;5029748;28;20423;-61
2021/04/15 11:14:39;;;;;;;3.70;3.50;;;7.90;99.90;;;;;;5028197;28;20439;-62
2021/04/15 11:17:18;;;;;;;4.83;4.00;;;7.80;99.90;;;;;;5023823;28;20483;-62
2021/04/15 11:19:45;;;;;;;4.30;4.00;;;7.80;99.90;;;;;;5013654;28;20427;-61
2021/04/15 11:22:21;;;;;;;4.10;3.80;;;7.80;99.90;;;;;;5022094;28;20446;-62
2021/04/15 11:24:47;;;;;;;4.07;3.77;;;7.90;99.90;;;;;;5028323;28;20447;-63
2021/04/15 11:27:32;;;;;;;3.80;3.50;;;7.90;99.90;;;;;;5027017;28;20842;-62
2021/04/15 11:29:58;;;;;;;3.60;3.40;;;8.10;99.90;;;;;;5029459;28;20473;-63
2021/04/15 11:32:45;;;;;;;3.63;3.43;;;8.30;99.90;;;;;;5027321;28;21218;-60
2021/04/15 11:35:19;;;;;;;4.10;3.80;;;8.30;99.90;;;;;;5028452;28;20181;-62
2021/04/15 11:37:48;;;;;;;3.77;3.47;;;8.40;99.90;;;;;;5028544;28;20441;-64
2021/04/15 11:40:22;;;;;;;2.90;2.80;;;8.40;99.90;;;;;;5028449;28;20436;-62
2021/04/15 11:42:49;;;;;;;3.80;3.07;;;8.50;99.90;;;;;;5027233;28;20446;-63
2021/04/15 11:45:34;;;;;;;2.90;2.80;;;8.20;99.90;;;;;;5028788;28;20500;-61
2021/04/15 11:48:20;;;;;;;3.07;2.87;;;8.20;99.90;;;;;;5027528;28;20500;-62
2021/04/15 11:50:51;;;;;;;2.80;2.70;;;8.10;99.90;;;;;;5022821;28;21654;-61
2021/04/15 11:53:43;;;;;;;2.93;2.73;;;8.10;99.90;;;;;;5025175;28;20436;-61
2021/04/15 11:56:38;;;;;;;3.33;3.13;;;8.20;99.90;;;;;;5026786;28;20862;-61
2021/04/15 11:59:24;;;;;;;3.00;2.80;;;8.10;99.90;;;;;;5018031;28;20444;-61
2021/04/15 12:01:53;;;;;;;3.73;2.93;;;8.00;99.90;;;;;;5028154;28;20439;-62
2021/04/15 12:04:28;;;;;;;3.40;3.20;;;7.90;99.90;;;;;;5021812;28;20948;-60
2021/04/15 12:07:25;;;;;;;3.90;3.00;;;7.90;99.90;;;;;;5027345;28;20446;-62
2021/04/15 12:09:52;;;;;;;3.10;2.90;;;7.90;99.90;;;;;;5042490;28;20436;-62
2021/04/15 12:12:38;;;;;;;3.40;3.20;;;7.90;99.90;;;;;;5028342;28;20467;-62
2021/04/15 12:15:08;;;;;;;3.20;3.00;;;7.80;99.90;;;;;;5025883;28;20762;-63
2021/04/15 12:17:49;;;;;;;3.37;3.17;;;7.80;99.90;;;;;;5027556;28;20432;-60
2021/04/15 12:20:52;;;;;;;3.60;3.40;;;7.80;99.90;;;;;;5025524;28;20439;-61
2021/04/15 12:23:30;;;;;;;4.27;3.87;;;7.90;4.50;;;;;;5020876;28;20479;-60
2021/04/15 12:26:01;;;;;;;3.30;3.10;;;8.20;1.30;;;;;;5028125;28;20433;-63
2021/04/15 12:28:42;;;;;;;3.27;2.97;;;8.40;99.90;;;;;;5027250;28;21795;-61
2021/04/15 12:31:28;;;;;;;3.40;3.20;;;8.40;99.90;;;;;;5027139;28;21334;-62
2021/04/15 12:34:23;;;;;;;3.40;3.10;;;8.20;99.90;;;;;;5027073;28;20507;-61
2021/04/15 12:37:02;;;;;;;3.60;3.30;;;8.00;99.90;;;;;;5018755;28;20994;-63
2021/04/15 12:39:52;;;;;;;3.70;3.50;;;7.80;99.90;;;;;;5026765;28;20447;-63
2021/04/15 12:42:23;;;;;;;4.03;3.73;;;7.50;99.90;;;;;;5022240;28;20971;-62
2021/04/15 12:44:53;;;;;;;3.88;3.58;;;7.20;1.00;;;;;;5027129;28;20448;-62
2021/04/15 12:47:19;;;;;;;5.45;4.07;;;7.10;99.90;;;;;;5023134;28;20192;-62
2021/04/15 12:49:47;;;;;;;4.78;4.32;;;7.40;99.90;;;;;;5021492;28;20185;-62
2021/04/15 12:52:13;;;;;;;4.13;3.83;;;7.50;99.90;;;;;;5021249;28;20224;-63
2021/04/15 12:54:41;;;;;;;4.30;3.90;;;7.90;23.30;;;;;;5013551;28;20440;-63
2021/04/15 12:57:13;;;;;;;4.30;4.00;;;8.20;1.00;;;;;;5023958;28;20444;-62
2021/04/15 12:59:49;;;;;;;4.10;3.80;;;8.50;1.00;;;;;;5026495;28;20533;-61
2021/04/15 13:02:27;;;;;;;4.00;3.70;;;8.90;1.00;;;;;;5020413;28;20837;-62
2021/04/15 13:05:00;;;;;;;4.07;3.83;;;9.20;1.00;;;;;;5026271;28;20487;-63
2021/04/15 13:07:25;;;;;;;4.30;4.00;;;9.20;1.00;;;;;;5025611;28;20441;-62
2021/04/15 13:09:53;;;;;;;4.00;3.63;;;9.00;99.90;;;;;;5027492;28;20751;-62
2021/04/15 13:12:18;;;;;;;3.90;3.60;;;8.90;99.90;;;;;;5025301;28;20177;-63
2021/04/15 13:14:47;;;;;;;4.60;4.20;;;8.90;99.90;;;;;;5028692;28;20431;-62
2021/04/15 13:17:34;;;;;;;4.07;3.67;;;8.70;99.90;;;;;;5025976;28;20189;-61
2021/04/15 13:20:04;;;;;;;4.30;4.00;;;8.70;99.90;;;;;;5016816;28;21075;-60
2021/04/15 13:22:38;;;;;;;4.30;3.90;;;8.30;99.90;;;;;;5026500;28;20499;-62
2021/04/15 13:25:03;;;;;;;4.03;3.73;;;8.10;99.90;;;;;;5024130;28;20993;-62
2021/04/15 13:27:38;;;;;;;4.67;4.20;;;7.90;99.90;;;;;;5020758;28;20467;-62
2021/04/15 13:30:34;;;;;;;5.05;4.65;;;7.70;99.90;;;;;;5020837;28;20219;-61
2021/04/15 13:33:07;;;;;;;3.70;3.50;;;7.70;99.90;;;;;;5018168;28;20180;-61
2021/04/15 13:35:47;;;;;;;4.50;4.10;;;7.60;99.90;;;;;;5025996;28;20423;-61
2021/04/15 13:38:32;;;;;;;4.63;4.33;;;7.50;1.00;;;;;;5014613;28;20936;-62
2021/04/15 13:41:05;;;;;;;4.23;3.93;;;7.70;1.00;;;;;;5036235;28;20601;-61
2021/04/15 13:43:42;;;;;;;5.23;4.60;;;7.60;1.00;;;;;;5026161;28;20434;-61
2021/04/15 13:48:57;;;;;;;4.88;4.57;;;7.30;1.00;;;;;;5030838;28;20240;-62
2021/04/15 13:51:25;;;;;;;4.95;4.55;;;7.10;1.00;;;;;;5028331;28;20187;-62
2021/04/15 13:54:02;;;;;;;6.13;5.63;;;6.90;99.90;;;;;;5024176;28;20175;-61
2021/04/15 13:56:35;;;;;;;5.60;5.10;;;6.70;99.90;;;;;;5022248;28;20215;-62
2021/04/15 13:59:02;;;;;;;5.88;5.22;;;6.60;99.90;;;;;;5030665;28;20299;-63
2021/04/15 14:01:38;;;;;;;6.22;5.72;;;6.60;1.00;;;;;;5027570;28;20630;-64
2021/04/15 14:04:04;;;;;;;6.15;5.65;;;6.60;99.90;;;;;;5031435;28;20278;-62
2021/04/15 14:06:30;;;;;;;6.73;6.17;;;6.60;1.00;;;;;;5027681;28;20328;-64
2021/04/15 14:09:28;;;;;;;8.10;7.50;;;6.60;1.00;;;;;;5029025;28;21230;-63